JAI83 LEIB-LERS

Flight info

Callsign JAI83
Flight time 0h 46m
Altitude 24000
Route EPAMA DCT BCN
Aircraft SF50/L-SDGRWY/L

Departure

Time 2026-05-06 18:28
Airport Ibiza Airport (LEIB)

Arrival

Time 2026-05-06 19:15
Airport Reus Airport (LERS)
Time Latitude Longitude Altitude Speed Heading
2026-05-06 18:14 38.87682 1.37604 23 ft 0 kts 334°
2026-05-06 18:19 38.87680 1.37559 23 ft 11 kts 237°
2026-05-06 18:20 38.87600 1.37550 23 ft 14 kts 165°
2026-05-06 18:20 38.87538 1.37472 23 ft 15 kts 241°
2026-05-06 18:20 38.87487 1.37349 23 ft 17 kts 243°
2026-05-06 18:20 38.87430 1.37213 22 ft 18 kts 242°
2026-05-06 18:21 38.87366 1.37060 22 ft 21 kts 242°
2026-05-06 18:21 38.87292 1.36881 22 ft 24 kts 242°
2026-05-06 18:21 38.87218 1.36699 22 ft 22 kts 241°
2026-05-06 18:21 38.87146 1.36528 22 ft 21 kts 242°
2026-05-06 18:22 38.87080 1.36366 21 ft 20 kts 242°
2026-05-06 18:22 38.87017 1.36222 21 ft 17 kts 239°
2026-05-06 18:22 38.86967 1.36093 21 ft 15 kts 243°
2026-05-06 18:22 38.86922 1.35985 21 ft 13 kts 242°
2026-05-06 18:23 38.86883 1.35890 21 ft 12 kts 242°
2026-05-06 18:23 38.86829 1.35818 21 ft 11 kts 171°
2026-05-06 18:23 38.86778 1.35850 21 ft 0 kts 160°
2026-05-06 18:27 38.86754 1.35865 21 ft 13 kts 150°
2026-05-06 18:27 38.86730 1.35969 22 ft 12 kts 62°
2026-05-06 18:28 38.86827 1.36213 22 ft 69 kts 63°
2026-05-06 18:28 38.87163 1.37021 245 ft 124 kts 63°
2026-05-06 18:28 38.87577 1.38113 726 ft 141 kts 70°
2026-05-06 18:28 38.87889 1.39239 1150 ft 127 kts 75°
2026-05-06 18:29 38.88091 1.40429 1423 ft 147 kts 84°
2026-05-06 18:29 38.88202 1.41820 1559 ft 162 kts 82°
2026-05-06 18:29 38.88480 1.43209 1875 ft 160 kts 73°
2026-05-06 18:29 38.88816 1.44580 2285 ft 165 kts 74°
2026-05-06 18:30 38.89111 1.45964 3143 ft 161 kts 76°
2026-05-06 18:30 38.89409 1.47389 3758 ft 168 kts 76°
2026-05-06 18:30 38.89711 1.48835 4476 ft 169 kts 76°
2026-05-06 18:30 38.90014 1.50299 5139 ft 171 kts 76°
2026-05-06 18:31 38.90325 1.51794 5751 ft 175 kts 76°
2026-05-06 18:31 38.90643 1.53322 6381 ft 179 kts 74°
2026-05-06 18:31 38.91250 1.54711 6964 ft 181 kts 47°
2026-05-06 18:31 38.92231 1.55727 7539 ft 183 kts 23°
2026-05-06 18:32 38.93458 1.55755 8173 ft 179 kts 340°
2026-05-06 18:32 38.94636 1.55233 8802 ft 180 kts 342°
2026-05-06 18:32 38.95860 1.54870 9474 ft 181 kts 346°
2026-05-06 18:32 38.96682 1.54659 9923 ft 182 kts 346°
2026-05-06 18:33 38.98334 1.54234 10700 ft 185 kts 345°
2026-05-06 18:33 38.99608 1.53907 11273 ft 188 kts 345°
2026-05-06 18:33 39.00480 1.53679 11661 ft 190 kts 345°
2026-05-06 18:33 39.01787 1.53342 12222 ft 194 kts 345°
2026-05-06 18:34 39.03554 1.52883 12966 ft 197 kts 344°
2026-05-06 18:34 39.04912 1.52532 13512 ft 201 kts 344°
2026-05-06 18:34 39.05844 1.52290 13862 ft 203 kts 344°
2026-05-06 18:34 39.07237 1.51928 14364 ft 205 kts 344°
2026-05-06 18:35 39.08637 1.51564 14879 ft 206 kts 343°
2026-05-06 18:35 39.10046 1.51199 15387 ft 207 kts 343°
2026-05-06 18:35 39.11465 1.50830 15893 ft 209 kts 343°
2026-05-06 18:35 39.12894 1.50460 16378 ft 210 kts 342°
2026-05-06 18:36 39.14335 1.50085 16857 ft 212 kts 342°
2026-05-06 18:36 39.15764 1.49715 17325 ft 213 kts 342°
2026-05-06 18:36 39.17224 1.49334 17793 ft 215 kts 342°
2026-05-06 18:36 39.18694 1.48953 18248 ft 216 kts 342°
2026-05-06 18:37 39.20176 1.48565 18639 ft 218 kts 341°
2026-05-06 18:37 39.21671 1.48176 19023 ft 220 kts 341°
2026-05-06 18:37 39.23179 1.47782 19410 ft 222 kts 341°
2026-05-06 18:37 39.24698 1.47385 19788 ft 224 kts 341°
2026-05-06 18:38 39.26229 1.46986 20172 ft 225 kts 340°
2026-05-06 18:38 39.27772 1.46582 20553 ft 227 kts 340°
2026-05-06 18:38 39.29328 1.46178 20926 ft 229 kts 340°
2026-05-06 18:38 39.30885 1.45772 21343 ft 228 kts 340°
2026-05-06 18:39 39.32443 1.45367 21750 ft 228 kts 339°
2026-05-06 18:39 39.34003 1.44959 22159 ft 228 kts 339°
2026-05-06 18:39 39.35556 1.44553 22631 ft 226 kts 340°
2026-05-06 18:40 39.38624 1.43749 23496 ft 225 kts 340°
2026-05-06 18:40 39.40156 1.43348 23855 ft 225 kts 339°
2026-05-06 18:40 39.41726 1.42928 23935 ft 238 kts 339°
2026-05-06 18:40 39.43395 1.42486 23946 ft 251 kts 340°
2026-05-06 18:41 39.45140 1.42033 23949 ft 260 kts 341°
2026-05-06 18:41 39.46945 1.41561 23949 ft 268 kts 341°
2026-05-06 18:41 39.48802 1.41075 23950 ft 276 kts 341°
2026-05-06 18:41 39.50708 1.40576 23951 ft 283 kts 341°
2026-05-06 18:42 39.52661 1.40062 23948 ft 290 kts 341°
2026-05-06 18:42 39.54663 1.39537 23949 ft 296 kts 341°
2026-05-06 18:42 39.56698 1.39004 23947 ft 301 kts 341°
2026-05-06 18:42 39.58773 1.38519 23943 ft 307 kts 347°
2026-05-06 18:43 39.60944 1.38559 23938 ft 318 kts
2026-05-06 18:43 39.63128 1.39212 23933 ft 326 kts 12°
2026-05-06 18:43 39.65288 1.40133 23935 ft 328 kts 12°
2026-05-06 18:43 39.67466 1.41031 23936 ft 329 kts 12°
2026-05-06 18:44 39.69650 1.41931 23938 ft 330 kts 12°
2026-05-06 18:44 39.71841 1.42848 23939 ft 331 kts 12°
2026-05-06 18:44 39.74038 1.43767 23938 ft 332 kts 12°
2026-05-06 18:44 39.76241 1.44688 23942 ft 333 kts 12°
2026-05-06 18:45 39.78446 1.45609 23940 ft 333 kts 12°
2026-05-06 18:45 39.80655 1.46533 23944 ft 334 kts 12°
2026-05-06 18:45 39.82872 1.47460 23945 ft 335 kts 12°
2026-05-06 18:45 39.85092 1.48390 23945 ft 336 kts 12°
2026-05-06 18:46 39.87319 1.49322 23948 ft 336 kts 12°
2026-05-06 18:46 39.89549 1.50255 23948 ft 337 kts 12°
2026-05-06 18:46 39.91780 1.51192 23949 ft 337 kts 12°
2026-05-06 18:46 39.94013 1.52129 23949 ft 337 kts 12°
2026-05-06 18:47 39.96250 1.53068 23943 ft 338 kts 12°
2026-05-06 18:47 39.98487 1.54009 23943 ft 338 kts 12°
2026-05-06 18:47 40.00724 1.54950 23943 ft 338 kts 12°
2026-05-06 18:47 40.02964 1.55895 23945 ft 339 kts 12°
2026-05-06 18:48 40.05208 1.56839 23948 ft 339 kts 12°
2026-05-06 18:48 40.07453 1.57786 23948 ft 339 kts 12°
2026-05-06 18:48 40.09696 1.58733 23948 ft 339 kts 12°
2026-05-06 18:48 40.11912 1.59669 23946 ft 339 kts 12°
2026-05-06 18:49 40.14189 1.60629 23946 ft 339 kts 12°
2026-05-06 18:49 40.16437 1.61578 23946 ft 340 kts 12°
2026-05-06 18:49 40.18657 1.62518 23946 ft 340 kts 12°
2026-05-06 18:49 40.20933 1.63481 23943 ft 340 kts 12°
2026-05-06 18:50 40.23183 1.64433 23943 ft 340 kts 12°
2026-05-06 18:50 40.25402 1.65374 23941 ft 340 kts 12°
2026-05-06 18:50 40.27653 1.66331 23940 ft 339 kts 12°
2026-05-06 18:50 40.29889 1.67282 23953 ft 338 kts 12°
2026-05-06 18:51 40.32121 1.68227 23944 ft 337 kts 12°
2026-05-06 18:51 40.34350 1.69176 23939 ft 336 kts 12°
2026-05-06 18:51 40.36575 1.70123 23938 ft 337 kts 12°
2026-05-06 18:51 40.38805 1.71071 23950 ft 337 kts 12°
2026-05-06 18:52 40.41041 1.72023 23936 ft 338 kts 12°
2026-05-06 18:52 40.43280 1.72976 23937 ft 338 kts 12°
2026-05-06 18:52 40.45522 1.73933 23937 ft 339 kts 12°
2026-05-06 18:52 40.47764 1.74890 23942 ft 339 kts 12°
2026-05-06 18:53 40.50011 1.75849 23941 ft 339 kts 12°
2026-05-06 18:53 40.52249 1.76807 23941 ft 339 kts 12°
2026-05-06 18:53 40.54488 1.77767 23941 ft 338 kts 12°
2026-05-06 18:53 40.56724 1.78724 23912 ft 337 kts 12°
2026-05-06 18:54 40.58908 1.79665 23614 ft 321 kts 12°
2026-05-06 18:54 40.60970 1.80556 23249 ft 304 kts 11°
2026-05-06 18:54 40.62958 1.81401 22894 ft 299 kts 11°
2026-05-06 18:54 40.64959 1.82248 22501 ft 304 kts 11°
2026-05-06 18:55 40.66967 1.83115 22094 ft 302 kts 12°
2026-05-06 18:55 40.68936 1.83970 21718 ft 294 kts 11°
2026-05-06 18:55 40.70875 1.84799 21350 ft 293 kts 11°
2026-05-06 18:55 40.72822 1.85631 20964 ft 295 kts 12°
2026-05-06 18:56 40.74764 1.86470 20579 ft 292 kts 12°
2026-05-06 18:56 40.76675 1.87297 20210 ft 287 kts 12°
2026-05-06 18:56 40.78561 1.88107 19849 ft 284 kts 12°
2026-05-06 18:56 40.80416 1.88905 19487 ft 284 kts 12°
2026-05-06 18:57 40.82289 1.89714 19118 ft 283 kts 12°
2026-05-06 18:57 40.84154 1.90519 18752 ft 281 kts 12°
2026-05-06 18:57 40.85999 1.91318 18392 ft 277 kts 12°
2026-05-06 18:57 40.87827 1.92109 18013 ft 276 kts 12°
2026-05-06 18:58 40.89643 1.92894 17657 ft 273 kts 12°
2026-05-06 18:58 40.91441 1.93673 17302 ft 271 kts 13°
2026-05-06 18:58 40.93221 1.94445 16945 ft 268 kts 13°
2026-05-06 18:58 40.94986 1.95208 16603 ft 266 kts 13°
2026-05-06 18:59 40.96736 1.95968 16264 ft 264 kts 13°
2026-05-06 18:59 40.98477 1.96723 15922 ft 263 kts 13°
2026-05-06 18:59 41.00210 1.97474 15583 ft 262 kts 14°
2026-05-06 18:59 41.01929 1.98222 15247 ft 259 kts 14°
2026-05-06 19:00 41.03631 1.98960 14915 ft 256 kts 14°
2026-05-06 19:00 41.05319 1.99694 14587 ft 254 kts 14°
2026-05-06 19:00 41.06996 2.00424 14257 ft 253 kts 14°
2026-05-06 19:00 41.08668 2.01049 13922 ft 246 kts
2026-05-06 19:01 41.10284 2.00576 13530 ft 238 kts 327°
2026-05-06 19:01 41.11318 1.98959 13132 ft 230 kts 295°
2026-05-06 19:01 41.11962 1.97038 12792 ft 228 kts 294°
2026-05-06 19:01 41.12765 1.95217 12440 ft 230 kts 303°
2026-05-06 19:02 41.13714 1.93519 12092 ft 229 kts 306°
2026-05-06 19:02 41.14653 1.91826 11750 ft 227 kts 304°
2026-05-06 19:02 41.15557 1.90117 11413 ft 225 kts 303°
2026-05-06 19:02 41.16454 1.88422 11081 ft 223 kts 304°
2026-05-06 19:03 41.17347 1.86746 10764 ft 222 kts 304°
2026-05-06 19:03 41.18231 1.85083 10444 ft 218 kts 304°
2026-05-06 19:03 41.19080 1.83489 9523 ft 211 kts 304°
2026-05-06 19:03 41.19929 1.81887 8453 ft 212 kts 304°
2026-05-06 19:04 41.20774 1.80300 7467 ft 210 kts 304°
2026-05-06 19:04 41.21613 1.78723 6516 ft 208 kts 305°
2026-05-06 19:04 41.22446 1.77145 5952 ft 207 kts 305°
2026-05-06 19:04 41.23315 1.75507 6008 ft 231 kts 305°
2026-05-06 19:05 41.24258 1.73728 6021 ft 236 kts 305°
2026-05-06 19:05 41.25210 1.71928 6025 ft 241 kts 305°
2026-05-06 19:05 41.26176 1.70106 6025 ft 241 kts 305°
2026-05-06 19:05 41.27146 1.68270 6024 ft 244 kts 305°
2026-05-06 19:06 41.28123 1.66419 6017 ft 245 kts 305°
2026-05-06 19:06 41.29095 1.64580 6016 ft 241 kts 305°
2026-05-06 19:06 41.30056 1.62761 6011 ft 242 kts 305°
2026-05-06 19:06 41.30862 1.60807 6012 ft 234 kts 290°
2026-05-06 19:07 41.31209 1.58882 5503 ft 205 kts 278°
2026-05-06 19:07 41.31245 1.57629 4870 ft 205 kts 269°
2026-05-06 19:07 41.30869 1.55164 4013 ft 205 kts 251°
2026-05-06 19:07 41.30202 1.53405 4009 ft 223 kts 238°
2026-05-06 19:08 41.29226 1.51914 4001 ft 203 kts 224°
2026-05-06 19:08 41.28124 1.50856 3993 ft 192 kts 211°
2026-05-06 19:08 41.26933 1.50094 3993 ft 189 kts 208°
2026-05-06 19:08 41.25752 1.49333 3993 ft 189 kts 208°
2026-05-06 19:09 41.24576 1.48529 3994 ft 189 kts 215°
2026-05-06 19:09 41.23683 1.47318 3993 ft 176 kts 238°
2026-05-06 19:09 41.23163 1.45910 3489 ft 172 kts 252°
2026-05-06 19:09 41.22778 1.44396 2935 ft 172 kts 250°
2026-05-06 19:10 41.22363 1.42932 2604 ft 161 kts 248°
2026-05-06 19:10 41.21961 1.41548 2590 ft 167 kts 247°
2026-05-06 19:10 41.21535 1.40094 2612 ft 169 kts 248°
2026-05-06 19:10 41.21108 1.38625 2606 ft 171 kts 248°
2026-05-06 19:11 41.20674 1.37129 2604 ft 177 kts 248°
2026-05-06 19:11 41.20232 1.35606 2605 ft 175 kts 248°
2026-05-06 19:11 41.19796 1.34103 2606 ft 174 kts 248°
2026-05-06 19:11 41.19356 1.32583 2485 ft 179 kts 248°
2026-05-06 19:12 41.18916 1.31067 2257 ft 173 kts 248°
2026-05-06 19:12 41.18485 1.29584 2024 ft 171 kts 247°
2026-05-06 19:12 41.18058 1.28125 1799 ft 169 kts 246°
2026-05-06 19:12 41.17626 1.26636 1569 ft 176 kts 247°
2026-05-06 19:13 41.17186 1.25119 1331 ft 174 kts 248°
2026-05-06 19:13 41.16761 1.23655 1100 ft 164 kts 247°
2026-05-06 19:13 41.16382 1.22357 903 ft 138 kts 247°
2026-05-06 19:13 41.16031 1.21144 714 ft 146 kts 247°
2026-05-06 19:14 41.15674 1.19921 574 ft 136 kts 246°
2026-05-06 19:14 41.15372 1.18857 397 ft 104 kts 245°
2026-05-06 19:14 41.15140 1.18052 253 ft 87 kts 243°
2026-05-06 19:14 41.14935 1.17440 236 ft 63 kts 252°
2026-05-06 19:15 41.14818 1.16989 236 ft 36 kts 247°
2026-05-06 19:15 41.14757 1.16777 237 ft 22 kts 254°
2026-05-06 19:15 41.14838 1.16667 237 ft 17 kts 336°
2026-05-06 19:15 41.14869 1.16561 235 ft 13 kts 252°
2026-05-06 19:16 41.14822 1.16405 234 ft 19 kts 250°
2026-05-06 19:16 41.14808 1.16260 236 ft 15 kts 323°
2026-05-06 19:16 41.14873 1.16308 235 ft 12 kts 76°
2026-05-06 19:16 41.14897 1.16394 236 ft 5 kts 39°
2026-05-06 19:17 41.14928 1.16387 234 ft 0 kts 17°
2026-05-06 19:17 41.14929 1.16398 234 ft 5 kts 141°
2026-05-06 19:17 41.14921 1.16401 235 ft 0 kts 161°